Time;durP1;ratioP1;P1;durP2;ratioP2;P2;SDS_P1;SDS_P2;PMS_P1;PMS_P2;Temp;Humidity;BMP_temperature;BMP_pressure;BME280_temperature;BME280_humidity;BME280_pressure;Samples;Min_cycle;Max_cycle;Signal;HPM_P1;HPM_P2
2021/07/09 19:09:17;;;;;;;;;;;24.50;61.10;;;;;;5052794;28;20373;-94
2021/07/09 19:11:43;;;;;;;;;;;24.10;64.90;;;;;;5052961;28;19967;-94
2021/07/09 19:14:09;;;;;;;;;;;24.10;67.10;;;;;;5034345;28;19909;-94
2021/07/09 19:16:34;;;;;;;;;;;24.10;68.60;;;;;;5035210;28;19909;-94
2021/07/09 19:19:00;;;;;;;;;;;24.10;69.70;;;;;;5034161;28;19909;-95
2021/07/09 19:39:19;;;;;;;;;;;23.90;66.70;;;;;;5055246;28;19921;-95
2021/07/09 19:41:45;;;;;;;;;;;23.90;69.90;;;;;;5055898;28;20000;-96
2021/07/09 19:44:11;;;;;;;;;;;23.80;71.80;;;;;;5052411;28;20270;-94
2021/07/09 19:46:36;;;;;;;;;;;23.80;72.90;;;;;;5051656;28;19960;-94
2021/07/09 19:49:02;;;;;;;;;;;23.80;74.50;;;;;;5033549;28;19960;-95
2021/07/09 20:09:23;;;;;;;;;;;23.50;69.60;;;;;;5070890;28;19971;-93
2021/07/09 20:11:49;;;;;;;;;;;23.40;73.10;;;;;;5071773;28;20376;-91
2021/07/09 20:14:14;;;;;;;;;;;23.40;75.10;;;;;;5053674;28;19931;-94
2021/07/09 20:16:40;;;;;;;;;;;23.40;76.30;;;;;;5054269;28;19912;-91
2021/07/09 20:19:06;;;;;;;;;;;23.50;77.20;;;;;;5054307;28;19908;-92
2021/07/09 20:21:32;;;;;;;;;;;23.60;77.30;;;;;;5054154;28;19909;-92
2021/07/09 20:23:58;;;;;;;;;;;23.70;77.10;;;;;;5054594;28;19913;-93
2021/07/09 20:26:23;;;;;;;;;;;23.80;77.00;;;;;;5053513;28;19963;-91
2021/07/09 20:28:49;;;;;;;;;;;24.00;76.80;;;;;;5053403;28;19912;-94
2021/07/09 20:31:15;;;;;;;;;;;24.10;76.20;;;;;;5053577;28;20039;-93
2021/07/09 20:33:40;;;;;;;;;;;24.20;75.60;;;;;;5053688;28;20266;-93
2021/07/09 20:36:08;;;;;;;;;;;24.30;74.80;;;;;;5053762;28;19952;-94
2021/07/09 20:38:38;;;;;;;;;;;24.50;74.30;;;;;;5054306;28;20288;-92
2021/07/09 20:41:07;;;;;;;;;;;24.60;73.70;;;;;;5072296;28;19909;-93
2021/07/09 20:43:36;;;;;;;;;;;24.70;73.40;;;;;;5054128;28;20008;-94
2021/07/09 20:46:02;;;;;;;;;;;24.80;73.00;;;;;;5053619;28;20427;-93
2021/07/09 20:48:27;;;;;;;;;;;25.00;72.50;;;;;;5053709;28;19917;-93
2021/07/09 20:50:53;;;;;;;;;;;25.00;72.00;;;;;;5071021;28;19960;-94
2021/07/09 20:53:18;;;;;;;;;;;25.10;71.60;;;;;;5053311;28;19962;-95
2021/07/09 20:55:44;;;;;;;;;;;25.20;71.10;;;;;;5053547;28;19917;-93
2021/07/09 20:58:10;;;;;;;;;;;25.20;70.80;;;;;;5053723;28;19955;-95
2021/07/09 21:00:35;;;;;;;;;;;25.30;70.30;;;;;;5054424;28;20320;-94
2021/07/09 21:03:01;;;;;;;;;;;25.30;70.60;;;;;;5054563;28;19909;-92
2021/07/09 21:05:27;;;;;;;;;;;25.30;70.00;;;;;;5054582;28;20338;-95
2021/07/09 21:07:52;;;;;;;;;;;25.30;70.10;;;;;;5054298;28;19924;-96
2021/07/09 21:10:18;;;;;;;;;;;25.30;70.10;;;;;;5053880;28;19909;-94
2021/07/09 21:12:44;;;;;;;;;;;25.40;70.10;;;;;;5054477;28;19970;-96
2021/07/09 21:15:10;;;;;;;;;;;25.30;70.10;;;;;;5053874;28;19972;-93
2021/07/09 21:17:35;;;;;;;;;;;25.30;70.30;;;;;;5055082;28;19920;-95
2021/07/09 21:20:02;;;;;;;;;;;25.40;70.70;;;;;;5045249;28;19909;-95
2021/07/09 22:05:14;;;;;;;;;;;23.50;69.60;;;;;;5073084;28;19921;-92
2021/07/09 22:07:40;;;;;;;;;;;23.40;73.00;;;;;;5056246;28;19912;-94
2021/07/09 23:05:05;;;;;;;;;;;22.00;74.20;;;;;;5072894;28;19924;-95
2021/07/09 23:07:31;;;;;;;;;;;21.90;78.60;;;;;;5054593;28;19913;-94
2021/07/09 23:09:56;;;;;;;;;;;21.80;81.30;;;;;;5054611;28;20361;-93
2021/07/09 23:12:22;;;;;;;;;;;21.90;83.10;;;;;;5053665;28;20341;-94
2021/07/09 23:14:47;;;;;;;;;;;21.90;84.50;;;;;;5053601;28;19915;-94
2021/07/09 23:17:13;;;;;;;;;;;21.90;85.00;;;;;;5053850;28;19954;-92
2021/07/09 23:19:39;;;;;;;;;;;21.90;85.80;;;;;;5053424;28;19923;-95
2021/07/09 23:22:04;;;;;;;;;;;22.00;86.40;;;;;;5053424;28;19909;-93
2021/07/09 23:24:30;;;;;;;;;;;22.00;86.90;;;;;;5053315;28;19920;-93
2021/07/09 23:26:55;;;;;;;;;;;22.00;87.00;;;;;;5053649;28;19931;-93
2021/07/09 23:29:21;;;;;;;;;;;22.10;87.40;;;;;;5053228;28;19908;-91
2021/07/09 23:31:47;;;;;;;;;;;22.10;87.70;;;;;;5071141;28;19915;-92
2021/07/09 23:34:13;;;;;;;;;;;22.10;87.70;;;;;;5053130;28;19916;-93
2021/07/09 23:36:38;;;;;;;;;;;22.20;88.00;;;;;;5053172;28;19935;-92
2021/07/09 23:39:04;;;;;;;;;;;22.10;88.00;;;;;;5053012;28;19991;-93
2021/07/09 23:41:29;;;;;;;;;;;22.20;88.40;;;;;;5053087;28;20316;-92
2021/07/09 23:43:55;;;;;;;;;;;22.10;88.30;;;;;;5053095;28;20353;-92
2021/07/09 23:46:21;;;;;;;;;;;22.10;88.80;;;;;;5053573;28;19916;-93
2021/07/09 23:48:46;;;;;;;;;;;22.10;89.10;;;;;;5052920;28;20365;-93
2021/07/09 23:51:12;;;;;;;;;;;22.10;89.40;;;;;;5052875;28;20280;-95
2021/07/09 23:53:37;;;;;;;;;;;22.10;89.10;;;;;;5052820;28;20269;-92
2021/07/09 23:56:03;;;;;;;;;;;22.10;89.40;;;;;;5052773;28;20011;-94
2021/07/09 23:58:29;;;;;;;;;;;22.10;89.80;;;;;;5052763;28;19912;-94
